createdAt,value
2022-09-14T00:00:13.621Z,68.30
2022-09-14T00:02:40.454Z,68.30
2022-09-14T00:05:07.477Z,68.40
2022-09-14T00:07:34.144Z,68.50
2022-09-14T00:10:00.892Z,68.60
2022-09-14T00:12:27.814Z,68.60
2022-09-14T00:14:54.626Z,68.80
2022-09-14T00:17:21.346Z,68.80
2022-09-14T00:19:48.058Z,68.80
2022-09-14T00:22:14.773Z,68.90
2022-09-14T00:24:41.484Z,68.90
2022-09-14T00:27:08.228Z,68.90
2022-09-14T00:29:34.914Z,69.00
2022-09-14T00:32:01.972Z,69.00
2022-09-14T00:34:28.870Z,69.00
2022-09-14T00:36:55.697Z,69.00
2022-09-14T00:39:26.025Z,68.90
2022-09-14T00:41:53.031Z,69.00
2022-09-14T00:44:19.693Z,68.90
2022-09-14T00:46:47.985Z,68.90
2022-09-14T00:49:39.204Z,68.90
2022-09-14T00:52:11.169Z,68.90
2022-09-14T00:54:48.233Z,68.90
2022-09-14T00:57:15.900Z,68.80
2022-09-14T00:59:42.715Z,68.80
2022-09-14T01:02:10.717Z,68.80
2022-09-14T01:04:37.614Z,68.90
2022-09-14T01:07:22.776Z,69.00
2022-09-14T01:09:55.513Z,69.00
2022-09-14T01:12:22.137Z,69.00
2022-09-14T01:15:02.566Z,69.30
2022-09-14T01:17:49.755Z,69.30
2022-09-14T01:20:34.070Z,69.20
2022-09-14T01:23:37.722Z,69.30
2022-09-14T01:26:20.401Z,69.40
2022-09-14T01:29:02.081Z,69.70
2022-09-14T01:31:33.033Z,69.50
2022-09-14T01:34:22.012Z,69.40
2022-09-14T01:36:51.801Z,69.10
2022-09-14T01:39:20.100Z,69.30
2022-09-14T01:41:47.009Z,69.80
2022-09-14T01:44:21.607Z,70.00
2022-09-14T01:46:57.302Z,70.30
2022-09-14T01:49:35.185Z,70.20
2022-09-14T01:52:08.532Z,70.00
2022-09-14T01:54:47.927Z,70.00
2022-09-14T01:57:36.193Z,69.90
2022-09-14T02:00:07.901Z,70.10
2022-09-14T02:02:40.174Z,69.90
2022-09-14T02:05:11.487Z,70.90
2022-09-14T02:07:38.263Z,70.10
2022-09-14T02:10:07.064Z,70.20
2022-09-14T02:12:33.900Z,70.00
2022-09-14T02:15:00.631Z,70.10
2022-09-14T02:17:27.656Z,70.10
2022-09-14T02:19:57.003Z,70.20
2022-09-14T02:22:25.105Z,71.00
2022-09-14T02:24:52.235Z,70.30
2022-09-14T02:27:18.938Z,70.20
2022-09-14T02:29:45.684Z,70.30
2022-09-14T02:32:41.584Z,70.30
2022-09-14T02:35:17.359Z,70.40
2022-09-14T02:37:49.739Z,70.40
2022-09-14T02:40:37.755Z,70.50
2022-09-14T02:43:33.531Z,70.50
2022-09-14T02:46:18.089Z,70.50
2022-09-14T02:49:07.336Z,70.50
2022-09-14T02:51:40.981Z,70.60
2022-09-14T02:54:19.757Z,70.80
2022-09-14T02:56:46.484Z,70.60
2022-09-14T02:59:13.307Z,70.70
2022-09-14T03:01:40.036Z,70.70
2022-09-14T03:04:06.720Z,71.00
2022-09-14T03:06:33.758Z,71.20
2022-09-14T03:09:00.967Z,71.10
2022-09-14T03:11:27.841Z,71.10
2022-09-14T03:13:54.531Z,71.20
2022-09-14T03:16:21.611Z,71.30
2022-09-14T03:18:48.432Z,71.40
2022-09-14T03:21:16.079Z,71.40
2022-09-14T03:23:44.516Z,71.40
2022-09-14T03:26:16.573Z,71.50
2022-09-14T03:28:43.531Z,71.40
2022-09-14T03:31:11.276Z,71.40
2022-09-14T03:33:39.837Z,71.50
2022-09-14T03:36:11.762Z,71.60
2022-09-14T03:38:38.497Z,71.70
2022-09-14T03:41:09.497Z,71.60
2022-09-14T03:43:36.204Z,71.60
2022-09-14T03:46:10.952Z,71.60
2022-09-14T03:48:37.848Z,71.70
2022-09-14T03:51:05.468Z,71.80
2022-09-14T03:53:32.266Z,71.80
2022-09-14T03:55:59.186Z,71.90
2022-09-14T03:58:26.309Z,71.80
2022-09-14T04:00:53.141Z,72.00
2022-09-14T04:03:19.881Z,71.90
2022-09-14T04:05:55.667Z,71.90
2022-09-14T04:08:22.935Z,72.00
2022-09-14T04:10:49.854Z,72.00
2022-09-14T04:13:16.623Z,71.90
2022-09-14T04:15:43.371Z,72.10
2022-09-14T04:18:10.112Z,72.10
2022-09-14T04:20:37.241Z,72.10
2022-09-14T04:23:04.060Z,72.20
2022-09-14T04:25:30.729Z,72.20
2022-09-14T04:28:19.108Z,72.10
2022-09-14T04:30:44.218Z,72.10
2022-09-14T04:33:10.946Z,72.20
2022-09-14T04:35:37.850Z,72.10
2022-09-14T04:38:04.924Z,72.10
2022-09-14T04:40:31.705Z,72.10
2022-09-14T04:42:58.507Z,72.20
2022-09-14T04:45:25.248Z,72.20
2022-09-14T04:47:51.903Z,72.10
2022-09-14T04:50:18.593Z,72.10
2022-09-14T04:52:45.298Z,72.10
2022-09-14T04:55:12.062Z,72.10
2022-09-14T04:57:38.786Z,72.10
2022-09-14T05:00:06.002Z,72.10
2022-09-14T05:02:32.712Z,72.20
2022-09-14T05:04:59.643Z,72.20
2022-09-14T05:07:26.629Z,72.00
2022-09-14T05:09:53.293Z,71.90
2022-09-14T05:12:19.987Z,71.90
2022-09-14T05:14:46.943Z,72.00
2022-09-14T05:17:14.401Z,72.10
2022-09-14T05:19:41.083Z,71.90
2022-09-14T05:22:07.813Z,72.00
2022-09-14T05:24:34.541Z,72.20
2022-09-14T05:27:02.424Z,72.30
2022-09-14T05:29:29.869Z,72.40
2022-09-14T05:31:56.589Z,72.30
2022-09-14T05:34:23.305Z,72.40
2022-09-14T05:36:50.058Z,72.30
2022-09-14T05:39:21.100Z,73.20
2022-09-14T05:41:50.297Z,72.50
2022-09-14T05:44:17.343Z,72.60
2022-09-14T05:46:44.072Z,72.60
2022-09-14T05:49:10.881Z,72.70
2022-09-14T05:51:37.586Z,72.80
2022-09-14T05:54:09.419Z,72.90
2022-09-14T05:56:36.151Z,73.10
2022-09-14T05:59:02.885Z,73.10
2022-09-14T06:01:31.799Z,73.10
2022-09-14T06:04:00.496Z,73.10
2022-09-14T06:06:27.267Z,73.10
2022-09-14T06:08:55.338Z,73.20
2022-09-14T06:11:30.378Z,73.30
2022-09-14T06:13:57.115Z,73.30
2022-09-14T06:16:24.642Z,73.30
2022-09-14T06:18:51.643Z,74.20
2022-09-14T06:21:19.838Z,73.50
2022-09-14T06:23:46.975Z,73.50
2022-09-14T06:26:13.747Z,73.60
2022-09-14T06:28:40.442Z,73.60
2022-09-14T06:31:07.821Z,73.70
2022-09-14T06:33:34.913Z,73.90
2022-09-14T06:36:09.841Z,74.10
2022-09-14T06:38:36.594Z,74.00
2022-09-14T06:41:05.369Z,74.10
2022-09-14T06:43:33.406Z,74.10
2022-09-14T06:46:00.971Z,74.20
2022-09-14T06:48:28.913Z,74.30
2022-09-14T06:50:55.763Z,74.40
2022-09-14T06:53:22.566Z,74.30
2022-09-14T06:55:49.247Z,74.40
2022-09-14T06:58:15.950Z,74.40
2022-09-14T07:00:42.771Z,74.20
2022-09-14T07:03:09.882Z,74.40
2022-09-14T07:05:36.788Z,74.40
2022-09-14T07:08:03.549Z,74.60
2022-09-14T07:10:30.220Z,74.90
2022-09-14T07:12:59.387Z,75.10
2022-09-14T07:15:26.289Z,75.10
2022-09-14T07:17:53.710Z,75.00
2022-09-14T07:20:20.395Z,75.00
2022-09-14T07:22:47.234Z,75.10
2022-09-14T07:25:14.016Z,75.00
2022-09-14T07:27:40.739Z,74.90
2022-09-14T07:30:08.643Z,74.80
2022-09-14T07:32:35.513Z,74.70
2022-09-14T07:35:02.292Z,74.80
2022-09-14T07:37:30.034Z,74.60
2022-09-14T07:39:57.309Z,74.60
2022-09-14T07:42:24.104Z,74.70
2022-09-14T07:44:50.855Z,74.60
2022-09-14T07:47:17.572Z,74.60
2022-09-14T07:49:44.431Z,74.60
2022-09-14T07:52:11.338Z,74.80
2022-09-14T07:54:38.361Z,74.80
2022-09-14T07:57:05.132Z,75.00
2022-09-14T07:59:36.087Z,75.00
2022-09-14T08:02:06.089Z,75.10
2022-09-14T08:04:35.159Z,75.30
2022-09-14T08:07:02.106Z,75.30
2022-09-14T08:09:29.166Z,75.40
2022-09-14T08:11:56.095Z,75.30
2022-09-14T08:14:22.904Z,75.30
2022-09-14T08:16:50.103Z,75.30
2022-09-14T08:19:17.805Z,75.40
2022-09-14T08:21:47.174Z,75.30
2022-09-14T08:24:19.522Z,75.40
2022-09-14T08:26:46.756Z,75.40
2022-09-14T08:29:14.338Z,75.30
2022-09-14T08:31:41.180Z,75.10
2022-09-14T08:34:07.932Z,75.10
2022-09-14T08:36:36.613Z,75.20
2022-09-14T08:39:04.573Z,75.30
2022-09-14T08:41:43.109Z,75.60
2022-09-14T08:44:26.220Z,75.40
2022-09-14T08:46:59.303Z,75.30
2022-09-14T08:49:37.259Z,75.50
2022-09-14T08:52:04.142Z,75.40
2022-09-14T08:54:32.970Z,75.40
2022-09-14T08:57:27.437Z,75.60
2022-09-14T09:00:09.048Z,75.30
2022-09-14T09:02:41.882Z,75.20
2022-09-14T09:05:37.762Z,75.10
2022-09-14T09:08:13.457Z,75.20
2022-09-14T09:10:40.426Z,75.40
2022-09-14T09:13:07.852Z,75.30
2022-09-14T09:15:50.464Z,75.40
2022-09-14T09:18:43.313Z,75.40
2022-09-14T09:21:18.670Z,75.20
2022-09-14T09:23:45.477Z,75.20
2022-09-14T09:26:25.986Z,75.80
2022-09-14T09:28:54.499Z,74.90
2022-09-14T09:31:31.832Z,75.00
2022-09-14T09:33:58.680Z,75.00
2022-09-14T09:36:25.376Z,74.80
2022-09-14T09:38:52.081Z,74.80
2022-09-14T09:41:24.015Z,74.60
2022-09-14T09:44:01.450Z,74.40
2022-09-14T09:46:32.837Z,74.20
2022-09-14T09:49:02.196Z,75.10
2022-09-14T09:51:33.097Z,74.20
2022-09-14T09:54:29.942Z,74.10
2022-09-14T09:57:04.167Z,74.10
2022-09-14T09:59:30.856Z,74.10
2022-09-14T10:02:16.655Z,74.10
2022-09-14T10:05:06.130Z,74.10
2022-09-14T10:07:36.405Z,73.90
2022-09-14T10:10:09.692Z,73.70
2022-09-14T10:12:37.248Z,73.40
2022-09-14T10:15:22.916Z,73.50
2022-09-14T10:18:10.731Z,73.30
2022-09-14T10:20:39.281Z,73.30
2022-09-14T10:23:18.471Z,72.90
2022-09-14T10:25:46.005Z,73.10
2022-09-14T10:28:22.770Z,72.90
2022-09-14T10:31:18.359Z,73.00
2022-09-14T10:33:52.037Z,72.60
2022-09-14T10:36:27.320Z,72.60
2022-09-14T10:39:14.272Z,72.50
2022-09-14T10:41:54.092Z,72.30
2022-09-14T10:44:48.761Z,72.10
2022-09-14T10:47:50.791Z,72.10
2022-09-14T10:50:48.040Z,72.00
2022-09-14T10:53:14.807Z,71.70
2022-09-14T10:55:43.767Z,71.50
2022-09-14T10:58:35.003Z,71.60
2022-09-14T11:01:20.353Z,71.60
2022-09-14T11:04:08.187Z,71.10
2022-09-14T11:06:41.811Z,70.80
2022-09-14T11:09:25.160Z,71.00
2022-09-14T11:12:17.489Z,70.80
2022-09-14T11:15:19.162Z,70.10
2022-09-14T11:17:58.470Z,70.00
2022-09-14T11:20:28.053Z,69.90
2022-09-14T11:23:12.572Z,69.70
2022-09-14T11:25:48.118Z,69.40
2022-09-14T11:28:22.270Z,68.20
2022-09-14T11:31:01.221Z,68.00
2022-09-14T11:33:41.219Z,67.90
2022-09-14T11:36:16.695Z,68.20
2022-09-14T11:39:03.441Z,68.40
2022-09-14T11:41:46.115Z,68.30
2022-09-14T11:44:14.204Z,68.20
2022-09-14T11:46:45.110Z,68.30
2022-09-14T11:49:16.123Z,68.10
2022-09-14T11:52:21.845Z,68.30
2022-09-14T11:54:49.047Z,68.20
2022-09-14T11:57:36.036Z,68.10
2022-09-14T12:00:33.424Z,67.80
2022-09-14T12:03:20.541Z,67.80
2022-09-14T12:05:48.342Z,67.80
2022-09-14T12:08:38.702Z,67.50
2022-09-14T12:11:08.270Z,67.20
2022-09-14T12:13:35.878Z,67.20
2022-09-14T12:16:09.305Z,67.10
2022-09-14T12:18:37.023Z,67.20
2022-09-14T12:21:08.273Z,67.00
2022-09-14T12:23:37.992Z,67.00
2022-09-14T12:26:10.228Z,66.80
2022-09-14T12:28:39.558Z,66.10
2022-09-14T12:31:06.374Z,65.20
2022-09-14T12:33:33.435Z,65.10
2022-09-14T12:36:11.070Z,65.10
2022-09-14T12:38:38.074Z,65.40
2022-09-14T12:41:10.537Z,65.00
2022-09-14T12:43:37.556Z,64.80
2022-09-14T12:46:22.439Z,64.50
2022-09-14T12:48:49.388Z,64.40
2022-09-14T12:51:35.413Z,64.10
2022-09-14T12:54:08.267Z,64.20
2022-09-14T12:56:43.742Z,63.70
2022-09-14T12:59:22.064Z,63.80
2022-09-14T13:02:04.472Z,63.40
2022-09-14T13:04:36.410Z,63.60
2022-09-14T13:07:05.957Z,63.30
2022-09-14T13:09:33.112Z,63.40
2022-09-14T13:12:07.385Z,63.30
2022-09-14T13:14:48.204Z,63.10
2022-09-14T13:17:16.077Z,63.30
2022-09-14T13:19:42.882Z,63.40
2022-09-14T13:22:21.551Z,63.50
2022-09-14T13:24:48.663Z,63.40
2022-09-14T13:27:18.321Z,63.10
2022-09-14T13:29:45.027Z,63.20
2022-09-14T13:32:11.816Z,63.10
2022-09-14T13:34:38.819Z,62.80
2022-09-14T13:37:06.133Z,62.80
2022-09-14T13:39:37.354Z,62.80
2022-09-14T13:42:04.306Z,62.50
2022-09-14T13:44:47.981Z,62.60
2022-09-14T13:47:19.428Z,62.50
2022-09-14T13:49:46.485Z,62.10
2022-09-14T13:52:25.892Z,62.20
2022-09-14T13:55:43.022Z,61.90
2022-09-14T13:58:09.722Z,61.80
2022-09-14T14:00:54.207Z,61.70
2022-09-14T14:03:32.669Z,61.10
2022-09-14T14:05:59.856Z,61.00
2022-09-14T14:08:32.080Z,61.00
2022-09-14T14:11:00.412Z,61.10
2022-09-14T14:13:28.328Z,60.90
2022-09-14T14:15:55.214Z,61.10
2022-09-14T14:18:34.809Z,61.00
2022-09-14T14:21:22.449Z,60.70
2022-09-14T14:24:11.793Z,60.90
2022-09-14T14:26:37.693Z,60.90
2022-09-14T14:29:08.774Z,61.10
2022-09-14T14:31:35.692Z,61.30
2022-09-14T14:34:11.301Z,61.50
2022-09-14T14:36:37.987Z,61.50
2022-09-14T14:39:04.650Z,61.50
2022-09-14T14:41:31.452Z,61.60
2022-09-14T14:43:59.154Z,61.40
2022-09-14T14:46:26.579Z,60.80
2022-09-14T14:48:53.372Z,61.00
2022-09-14T14:51:20.224Z,61.10
2022-09-14T14:53:46.971Z,61.00
2022-09-14T14:56:13.790Z,61.10
2022-09-14T14:58:47.221Z,61.00
2022-09-14T15:01:16.444Z,61.10
2022-09-14T15:03:43.385Z,61.20
2022-09-14T15:06:28.499Z,61.00
2022-09-14T15:08:55.844Z,60.70
2022-09-14T15:11:22.679Z,60.80
2022-09-14T15:13:49.911Z,60.90
2022-09-14T15:16:17.221Z,60.60
2022-09-14T15:18:44.075Z,60.20
2022-09-14T15:21:10.909Z,59.60
2022-09-14T15:23:37.722Z,59.00
2022-09-14T15:26:04.469Z,58.40
2022-09-14T15:28:31.193Z,58.40
2022-09-14T15:30:58.304Z,58.20
2022-09-14T15:33:25.167Z,58.80
2022-09-14T15:35:56.360Z,59.10
2022-09-14T15:38:23.348Z,59.10
2022-09-14T15:40:50.112Z,59.20
2022-09-14T15:43:17.258Z,59.10
2022-09-14T15:45:44.045Z,59.10
2022-09-14T15:48:17.504Z,58.90
2022-09-14T15:50:45.209Z,58.90
2022-09-14T15:53:12.650Z,58.90
2022-09-14T15:55:40.661Z,60.00
2022-09-14T15:58:07.481Z,59.30
2022-09-14T16:00:34.547Z,59.50
2022-09-14T16:03:01.342Z,59.40
2022-09-14T16:05:28.050Z,59.30
2022-09-14T16:07:55.217Z,59.40
2022-09-14T16:10:23.025Z,59.40
2022-09-14T16:12:49.746Z,59.40
2022-09-14T16:15:16.458Z,59.30
2022-09-14T16:17:43.212Z,59.40
2022-09-14T16:20:10.513Z,59.60
2022-09-14T16:22:37.249Z,59.60
2022-09-14T16:25:04.274Z,59.70
2022-09-14T16:27:31.011Z,59.70
2022-09-14T16:29:57.656Z,59.70
2022-09-14T16:32:24.411Z,59.80
2022-09-14T16:34:51.081Z,60.10
2022-09-14T16:37:17.798Z,61.20
2022-09-14T16:39:44.554Z,60.70
2022-09-14T16:42:11.276Z,60.90
2022-09-14T16:44:37.939Z,61.00
2022-09-14T16:47:04.781Z,61.00
2022-09-14T16:49:31.600Z,61.10
2022-09-14T16:52:00.704Z,61.10
2022-09-14T16:54:29.721Z,61.10
2022-09-14T16:56:58.030Z,61.00
2022-09-14T16:59:24.968Z,61.00
2022-09-14T17:01:54.621Z,61.00
2022-09-14T17:04:22.204Z,61.30
2022-09-14T17:06:50.300Z,61.40
2022-09-14T17:09:19.514Z,61.60
2022-09-14T17:11:46.572Z,61.90
2022-09-14T17:14:19.293Z,61.90
2022-09-14T17:16:46.147Z,62.00
2022-09-14T17:19:13.032Z,62.00
2022-09-14T17:21:40.976Z,62.10
2022-09-14T17:24:08.073Z,62.20
2022-09-14T17:26:34.861Z,62.20
2022-09-14T17:29:01.910Z,62.30
2022-09-14T17:31:33.718Z,62.60
2022-09-14T17:34:01.022Z,62.70
2022-09-14T17:36:27.916Z,62.80
2022-09-14T17:38:59.069Z,62.80
2022-09-14T17:41:28.070Z,63.80
2022-09-14T17:43:56.613Z,63.10
2022-09-14T17:46:23.684Z,63.20
2022-09-14T17:48:50.951Z,63.20
2022-09-14T17:51:22.643Z,63.40
2022-09-14T17:53:51.843Z,63.50
2022-09-14T17:56:20.313Z,63.50
2022-09-14T17:58:47.980Z,64.50
2022-09-14T18:01:14.775Z,63.50
2022-09-14T18:03:42.993Z,63.70
2022-09-14T18:06:11.299Z,64.00
2022-09-14T18:08:38.308Z,64.10
2022-09-14T18:11:09.951Z,64.20
2022-09-14T18:13:43.920Z,64.40
2022-09-14T18:16:10.841Z,64.30
2022-09-14T18:18:37.592Z,64.20
2022-09-14T18:21:04.450Z,64.20
2022-09-14T18:23:31.261Z,64.20
2022-09-14T18:25:58.050Z,64.10
2022-09-14T18:28:24.881Z,63.80
2022-09-14T18:30:53.009Z,64.10
2022-09-14T18:33:19.708Z,64.40
2022-09-14T18:35:46.534Z,64.40
2022-09-14T18:38:13.276Z,64.30
2022-09-14T18:40:39.994Z,64.50
2022-09-14T18:43:06.748Z,64.60
2022-09-14T18:45:33.915Z,64.50
2022-09-14T18:48:00.679Z,64.40
2022-09-14T18:50:27.413Z,64.30
2022-09-14T18:52:54.129Z,64.50
2022-09-14T18:55:23.545Z,64.50
2022-09-14T18:57:50.280Z,64.70
2022-09-14T19:00:18.719Z,64.80
2022-09-14T19:02:50.668Z,65.00
2022-09-14T19:05:17.544Z,65.20
2022-09-14T19:07:44.297Z,65.20
2022-09-14T19:10:11.711Z,65.50
2022-09-14T19:12:38.693Z,65.30
2022-09-14T19:15:05.779Z,65.40
2022-09-14T19:17:32.532Z,65.50
2022-09-14T19:19:59.282Z,65.60
2022-09-14T19:22:26.057Z,65.70
2022-09-14T19:24:52.756Z,65.70
2022-09-14T19:27:19.438Z,65.90
2022-09-14T19:29:46.100Z,65.80
2022-09-14T19:32:13.830Z,66.00
2022-09-14T19:34:40.573Z,66.00
2022-09-14T19:37:07.274Z,65.90
2022-09-14T19:39:34.033Z,65.80
2022-09-14T19:42:00.756Z,66.10
2022-09-14T19:44:27.437Z,66.40
2022-09-14T19:46:54.173Z,67.20
2022-09-14T19:49:22.376Z,66.30
2022-09-14T19:51:49.190Z,66.50
2022-09-14T19:54:15.968Z,66.60
2022-09-14T19:56:42.797Z,66.60
2022-09-14T19:59:09.629Z,66.50
2022-09-14T20:01:37.263Z,66.60
2022-09-14T20:04:04.934Z,66.70
2022-09-14T20:06:36.431Z,66.60
2022-09-14T20:09:06.476Z,66.80
2022-09-14T20:11:34.026Z,67.00
2022-09-14T20:14:01.764Z,67.40
2022-09-14T20:16:33.656Z,67.40
2022-09-14T20:19:09.632Z,67.80
2022-09-14T20:21:37.420Z,68.20
2022-09-14T20:24:15.705Z,68.50
2022-09-14T20:26:47.605Z,68.80
2022-09-14T20:29:14.492Z,69.40
2022-09-14T20:31:41.320Z,69.80
2022-09-14T20:34:08.045Z,70.30
2022-09-14T20:36:34.740Z,70.10
2022-09-14T20:39:01.501Z,70.50
2022-09-14T20:41:30.009Z,70.90
2022-09-14T20:43:57.005Z,71.40
2022-09-14T20:46:34.836Z,71.70
2022-09-14T20:49:02.268Z,71.10
2022-09-14T20:51:29.029Z,70.90
2022-09-14T20:53:58.877Z,70.60
2022-09-14T20:56:27.569Z,70.60
2022-09-14T20:58:58.704Z,71.00
2022-09-14T21:01:27.210Z,71.10
2022-09-14T21:03:54.071Z,70.90
2022-09-14T21:06:23.379Z,70.90
2022-09-14T21:08:50.416Z,69.50
2022-09-14T21:11:19.520Z,69.60
2022-09-14T21:13:46.373Z,70.30
2022-09-14T21:16:34.539Z,69.70
2022-09-14T21:19:03.339Z,70.60
2022-09-14T21:21:30.394Z,71.30
2022-09-14T21:23:57.611Z,71.40
2022-09-14T21:26:25.587Z,71.60
2022-09-14T21:28:59.531Z,72.00
2022-09-14T21:31:28.315Z,72.00
2022-09-14T21:33:56.381Z,72.40
2022-09-14T21:36:25.723Z,72.40
2022-09-14T21:38:53.755Z,72.20
2022-09-14T21:41:21.593Z,72.00
2022-09-14T21:43:48.328Z,72.20
2022-09-14T21:46:15.123Z,72.30
2022-09-14T21:48:41.854Z,72.80
2022-09-14T21:51:25.733Z,73.40
2022-09-14T21:54:00.498Z,73.80
2022-09-14T21:56:29.059Z,74.00
2022-09-14T21:58:57.230Z,74.00
2022-09-14T22:01:24.376Z,74.60
2022-09-14T22:03:52.137Z,73.90
2022-09-14T22:06:20.251Z,73.10
2022-09-14T22:08:47.002Z,72.90
2022-09-14T22:11:14.563Z,72.90
2022-09-14T22:13:41.334Z,73.30
2022-09-14T22:16:13.159Z,73.30
2022-09-14T22:18:41.808Z,73.60
2022-09-14T22:21:08.637Z,73.40
2022-09-14T22:23:35.658Z,72.90
2022-09-14T22:26:07.305Z,73.10
2022-09-14T22:28:34.257Z,73.10
2022-09-14T22:31:01.126Z,73.70
2022-09-14T22:33:28.901Z,74.30
2022-09-14T22:35:57.005Z,74.40
2022-09-14T22:38:25.225Z,74.80
2022-09-14T22:40:56.250Z,74.40
2022-09-14T22:43:23.136Z,74.50
2022-09-14T22:45:50.016Z,74.00
2022-09-14T22:48:16.955Z,74.40
2022-09-14T22:50:47.360Z,74.80
2022-09-14T22:53:14.281Z,74.80
2022-09-14T22:55:41.676Z,74.80
2022-09-14T22:58:08.751Z,74.80
2022-09-14T23:00:36.221Z,75.00
2022-09-14T23:03:03.036Z,75.20
2022-09-14T23:05:29.752Z,75.20
2022-09-14T23:07:56.582Z,75.50
2022-09-14T23:10:23.568Z,75.60
2022-09-14T23:12:50.435Z,75.70
2022-09-14T23:15:17.355Z,75.70
2022-09-14T23:17:46.681Z,75.70
2022-09-14T23:20:15.579Z,75.80
2022-09-14T23:22:42.273Z,75.70
2022-09-14T23:25:09.603Z,75.80
2022-09-14T23:27:36.293Z,75.90
2022-09-14T23:30:03.181Z,75.90
2022-09-14T23:32:29.875Z,76.00
2022-09-14T23:34:56.542Z,76.20
2022-09-14T23:37:23.218Z,76.40
2022-09-14T23:39:50.093Z,76.00
2022-09-14T23:42:16.974Z,75.70
2022-09-14T23:44:43.661Z,76.10
2022-09-14T23:47:10.410Z,76.30
2022-09-14T23:49:37.187Z,76.30
2022-09-14T23:52:04.005Z,76.30
2022-09-14T23:54:32.016Z,76.30
2022-09-14T23:56:58.759Z,76.50
2022-09-14T23:59:25.451Z,77.40
